createdAt,value
2019-03-04T00:01:24.300Z,60.30
2019-03-04T00:06:28.461Z,61.23
2019-03-04T00:11:32.602Z,60.46
2019-03-04T00:16:36.815Z,60.28
2019-03-04T00:21:41.017Z,60.28
2019-03-04T00:26:45.178Z,61.05
2019-03-04T00:31:49.257Z,61.61
2019-03-04T00:36:53.509Z,60.61
2019-03-04T00:41:57.736Z,61.44
2019-03-04T00:47:01.834Z,61.60
2019-03-04T00:52:06.036Z,61.54
2019-03-04T00:57:10.174Z,61.21
2019-03-04T01:02:14.331Z,61.94
2019-03-04T01:07:18.582Z,61.53
2019-03-04T01:12:22.776Z,62.52
2019-03-04T01:17:26.891Z,62.86
2019-03-04T01:22:31.091Z,62.86
2019-03-04T01:27:35.292Z,62.83
2019-03-04T01:32:39.683Z,62.88
2019-03-04T01:37:43.988Z,63.16
2019-03-04T01:42:48.245Z,62.84
2019-03-04T01:47:52.436Z,62.73
2019-03-04T01:52:56.661Z,60.87
2019-03-04T01:58:00.935Z,62.14
2019-03-04T02:03:05.376Z,61.80
2019-03-04T02:08:09.575Z,62.16
2019-03-04T02:13:13.824Z,61.88
2019-03-04T02:18:17.988Z,61.98
2019-03-04T02:23:22.174Z,61.81
2019-03-04T02:28:26.389Z,61.81
2019-03-04T02:33:30.601Z,61.29
2019-03-04T02:38:34.812Z,60.80
2019-03-04T02:43:38.977Z,60.64
2019-03-04T02:48:43.043Z,61.67
2019-03-04T02:53:47.138Z,62.30
2019-03-04T02:58:51.171Z,61.82
2019-03-04T03:03:55.249Z,61.82
2019-03-04T03:08:59.308Z,62.30
2019-03-04T03:14:03.460Z,62.43
2019-03-04T03:19:07.522Z,62.80
2019-03-04T03:24:11.542Z,62.10
2019-03-04T03:29:15.750Z,62.65
2019-03-04T03:34:19.901Z,62.65
2019-03-04T03:39:24.034Z,63.29
2019-03-04T03:44:28.079Z,63.47
2019-03-04T03:49:32.133Z,63.39
2019-03-04T03:54:36.151Z,63.39
2019-03-04T03:59:40.259Z,63.44
2019-03-04T04:04:44.386Z,64.30
2019-03-04T04:09:48.511Z,64.30
2019-03-04T04:14:52.539Z,64.21
2019-03-04T04:19:56.586Z,63.33
2019-03-04T04:25:00.684Z,64.19
2019-03-04T04:30:05.835Z,63.73
2019-03-04T04:35:10.035Z,63.75
2019-03-04T04:40:14.260Z,64.89
2019-03-04T04:45:18.388Z,64.85
2019-03-04T04:50:22.727Z,64.54
2019-03-04T04:55:26.924Z,64.44
2019-03-04T05:00:31.430Z,64.08
2019-03-04T05:05:35.572Z,63.86
2019-03-04T05:10:39.739Z,63.74
2019-03-04T05:15:43.945Z,63.16
2019-03-04T05:20:48.137Z,63.55
2019-03-04T05:25:52.260Z,63.11
2019-03-04T05:30:56.466Z,63.02
2019-03-04T05:36:00.547Z,63.09
2019-03-04T05:41:04.732Z,63.08
2019-03-04T05:46:08.895Z,63.03
2019-03-04T05:51:13.188Z,63.44
2019-03-04T05:56:17.384Z,63.10
2019-03-04T06:01:27.027Z,63.10
2019-03-04T06:06:48.862Z,62.90
2019-03-04T06:11:53.047Z,62.84
2019-03-04T06:16:57.320Z,62.84
2019-03-04T06:22:01.570Z,62.82
2019-03-04T06:27:05.850Z,63.05
2019-03-04T06:32:09.967Z,63.25
2019-03-04T06:37:14.156Z,63.25
2019-03-04T06:42:18.388Z,63.09
2019-03-04T06:47:22.647Z,62.59
2019-03-04T06:52:27.268Z,62.48
2019-03-04T06:57:44.241Z,62.73
2019-03-04T07:02:48.413Z,62.36
2019-03-04T07:07:52.709Z,62.45
2019-03-04T07:12:56.911Z,62.45
2019-03-04T07:18:01.091Z,62.76
2019-03-04T07:23:05.389Z,62.79
2019-03-04T07:28:09.615Z,62.69
2019-03-04T07:33:14.029Z,62.81
2019-03-04T07:38:51.792Z,62.75
2019-03-04T07:43:55.929Z,52.06
2019-03-04T07:49:00.157Z,53.06
2019-03-04T07:54:04.646Z,54.42
2019-03-04T07:59:08.906Z,55.28
2019-03-04T08:04:12.914Z,56.62
2019-03-04T08:09:22.194Z,52.20
2019-03-04T08:14:26.293Z,50.41
2019-03-04T08:19:30.437Z,51.42
2019-03-04T08:24:34.455Z,52.06
2019-03-04T08:29:38.542Z,52.75
2019-03-04T08:34:42.632Z,52.68
2019-03-04T08:39:46.717Z,53.00
2019-03-04T08:44:50.736Z,53.00
2019-03-04T08:49:54.767Z,54.08
2019-03-04T08:54:59.396Z,54.08
2019-03-04T09:00:03.894Z,54.50
2019-03-04T09:05:08.711Z,54.79
2019-03-04T09:10:16.851Z,55.07
2019-03-04T09:15:21.082Z,55.28
2019-03-04T09:20:25.597Z,55.91
2019-03-04T09:25:34.710Z,55.91
2019-03-04T09:30:39.147Z,55.71
2019-03-04T09:35:57.121Z,56.17
2019-03-04T09:41:01.192Z,56.17
2019-03-04T09:46:05.430Z,56.20
2019-03-04T09:51:09.806Z,56.58
2019-03-04T09:56:14.405Z,56.58
2019-03-04T10:01:28.803Z,56.45
2019-03-04T10:07:10.601Z,56.97
2019-03-04T10:12:36.679Z,56.97
2019-03-04T10:18:18.800Z,56.29
2019-03-04T10:24:13.175Z,56.45
2019-03-04T10:30:07.589Z,56.75
2019-03-04T10:36:01.708Z,56.75
2019-03-04T10:41:30.222Z,56.15
2019-03-04T10:46:55.993Z,48.95
2019-03-04T10:52:00.210Z,51.02
2019-03-04T10:57:04.414Z,51.02
2019-03-04T11:02:08.590Z,51.96
2019-03-04T11:07:54.611Z,51.82
2019-03-04T11:23:59.473Z,51.74
2019-03-04T11:29:04.526Z,53.58
2019-03-04T11:34:08.759Z,52.92
2019-03-04T11:39:52.374Z,52.92
2019-03-04T11:44:56.867Z,53.32
2019-03-04T11:50:01.458Z,53.91
2019-03-04T11:55:07.894Z,53.91
2019-03-04T12:00:15.730Z,52.71
2019-03-04T12:05:20.193Z,53.02
2019-03-04T12:10:24.568Z,53.64
2019-03-04T12:15:29.126Z,53.18
2019-03-04T12:20:33.870Z,53.18
2019-03-04T12:25:50.168Z,54.17
2019-03-04T12:30:55.684Z,54.17
2019-03-04T12:36:00.228Z,54.59
2019-03-04T12:41:04.834Z,56.49
2019-03-04T12:46:09.226Z,58.09
2019-03-04T12:51:22.757Z,59.13
2019-03-04T12:56:19.915Z,59.13
2019-03-04T13:01:24.509Z,57.14
2019-03-04T13:06:29.029Z,57.46
2019-03-04T13:11:33.543Z,57.03
2019-03-04T13:16:38.040Z,57.96
2019-03-04T13:21:42.569Z,57.94
2019-03-04T13:26:47.096Z,57.56
2019-03-04T13:31:51.569Z,57.46
2019-03-04T13:36:56.190Z,57.46
2019-03-04T13:42:00.637Z,58.53
2019-03-04T13:47:05.223Z,57.41
2019-03-04T13:52:09.662Z,57.41
2019-03-04T13:57:14.171Z,57.62
2019-03-04T14:02:18.719Z,57.42
2019-03-04T14:07:23.170Z,57.42
2019-03-04T14:12:28.935Z,57.63
2019-03-04T14:17:33.218Z,59.03
2019-03-04T14:22:40.540Z,59.71
2019-03-04T14:28:05.744Z,59.71
2019-03-04T14:38:34.821Z,59.12
2019-03-04T14:49:15.447Z,59.60
2019-03-04T14:54:22.009Z,59.60
2019-03-04T14:59:29.578Z,59.23
2019-03-04T15:31:00.297Z,58.75
2019-03-04T15:36:09.146Z,58.54
2019-03-04T15:41:14.931Z,58.54
2019-03-04T15:46:24.313Z,59.35
2019-03-04T15:57:58.642Z,58.84
2019-03-04T16:03:29.976Z,58.44
2019-03-04T16:08:49.803Z,58.42
2019-03-04T16:14:00.506Z,58.00
2019-03-04T16:19:31.043Z,58.01
2019-03-04T16:31:12.303Z,57.98
2019-03-04T16:42:56.222Z,58.01
2019-03-04T16:48:00.537Z,57.64
2019-03-04T16:53:04.887Z,57.18
2019-03-04T16:58:08.991Z,57.18
2019-03-04T17:03:13.223Z,57.43
2019-03-04T17:08:17.509Z,56.92
2019-03-04T17:13:21.741Z,56.55
2019-03-04T17:18:25.917Z,56.58
2019-03-04T17:23:30.274Z,56.04
2019-03-04T17:28:34.639Z,56.00
2019-03-04T17:33:38.990Z,55.64
2019-03-04T17:38:43.184Z,55.83
2019-03-04T17:43:47.471Z,56.12
2019-03-04T17:48:51.720Z,56.33
2019-03-04T17:53:55.828Z,56.33
2019-03-04T17:59:00.115Z,56.20
2019-03-04T18:04:04.349Z,56.20
2019-03-04T18:09:08.617Z,55.91
2019-03-04T18:14:12.907Z,56.25
2019-03-04T18:19:16.984Z,55.83
2019-03-04T18:24:21.278Z,55.80
2019-03-04T18:35:47.981Z,56.55
2019-03-04T18:41:09.599Z,56.43
2019-03-04T18:47:05.728Z,56.53
2019-03-04T18:52:10.109Z,56.38
2019-03-04T18:57:14.437Z,56.83
2019-03-04T19:02:19.034Z,56.83
2019-03-04T19:07:23.402Z,56.53
2019-03-04T19:12:27.881Z,56.54
2019-03-04T19:17:33.724Z,56.22
2019-03-04T19:22:38.194Z,55.53
2019-03-04T19:27:42.329Z,55.87
2019-03-04T19:32:46.739Z,55.93
2019-03-04T19:37:50.910Z,55.96
2019-03-04T19:42:55.013Z,55.63
2019-03-04T19:47:59.225Z,55.77
2019-03-04T19:53:03.370Z,55.14
2019-03-04T19:58:07.507Z,55.39
2019-03-04T20:03:11.807Z,54.76
2019-03-04T20:08:17.473Z,55.02
2019-03-04T20:13:21.638Z,54.04
2019-03-04T20:18:25.797Z,54.99
2019-03-04T20:23:29.958Z,54.91
2019-03-04T20:28:34.145Z,54.06
2019-03-04T20:33:40.742Z,54.81
2019-03-04T20:38:46.984Z,54.39
2019-03-04T20:43:51.031Z,53.81
2019-03-04T20:48:55.452Z,53.81
2019-03-04T20:53:59.517Z,53.03
2019-03-04T20:59:03.647Z,53.34
2019-03-04T21:04:07.927Z,53.60
2019-03-04T21:09:14.329Z,53.86
2019-03-04T21:14:18.702Z,53.61
2019-03-04T21:19:22.891Z,53.84
2019-03-04T21:24:27.069Z,53.81
2019-03-04T21:30:03.927Z,53.49
2019-03-04T21:35:55.200Z,53.54
2019-03-04T21:41:27.780Z,54.85
2019-03-04T21:47:09.064Z,54.20
2019-03-04T21:52:31.443Z,54.58
2019-03-04T21:57:39.529Z,54.31
2019-03-04T22:02:54.424Z,54.39
2019-03-04T22:07:58.535Z,54.73
2019-03-04T22:13:03.030Z,55.17
2019-03-04T22:18:08.123Z,55.34
2019-03-04T22:23:12.583Z,55.34
2019-03-04T22:28:16.770Z,55.39
2019-03-04T22:33:20.851Z,55.91
2019-03-04T22:38:25.102Z,55.68
2019-03-04T22:43:29.241Z,55.68
2019-03-04T22:48:33.326Z,55.44
2019-03-04T22:53:37.505Z,55.44
2019-03-04T22:58:41.610Z,55.10
2019-03-04T23:03:46.330Z,55.12
2019-03-04T23:08:50.515Z,55.27
2019-03-04T23:14:13.843Z,55.27
2019-03-04T23:19:18.020Z,55.08
2019-03-04T23:24:22.126Z,55.25
2019-03-04T23:29:26.226Z,55.00
2019-03-04T23:34:30.428Z,55.46
2019-03-04T23:39:34.515Z,55.04
2019-03-04T23:44:38.748Z,55.06
2019-03-04T23:49:43.025Z,55.06
2019-03-04T23:54:47.295Z,55.36
2019-03-04T23:59:51.398Z,55.54
